Arcola, Mississippi
Current Conditions -  °F | °C
As of 3:53 PM on Friday 19 Dec 2014 (Local Time) from KGLH Reporting Station
Haze Haze  
Wind Chill: 43°   Ceiling: 8500
Heat Index: 47°   Visibility: 6mi
Dew Point: 43°   Wind: 9mph
Humidity: 86%   Direction: 60°ENE
Pressure: 30.14"   Gusts: NA
Location:  33.27°N, 90.88°W
Report Text: KGLH 192153Z AUTO 06008KT 6SM BR FEW070 BKN085 OVC110 08/06 A3014 RMK AO2 RAE53 SLP213 P0000 T00830061
Loading
Personal Weather Stations






























Interactive Weather Map New forecast layout! Learn more

10-Day Weather Forecast

Advertisements
Track Severe Weather on mobile